createdAt,value
2019-05-01T00:02:50.947Z,70.57
2019-05-01T00:05:28.934Z,69.00
2019-05-01T00:08:02.241Z,74.72
2019-05-01T00:10:35.275Z,67.35
2019-05-01T00:13:09.341Z,68.95
2019-05-01T00:15:42.646Z,73.33
2019-05-01T00:18:16.444Z,76.82
2019-05-01T00:20:50.778Z,71.85
2019-05-01T00:23:23.709Z,75.12
2019-05-01T00:25:56.745Z,74.87
2019-05-01T00:28:29.862Z,79.27
2019-05-01T00:31:03.145Z,69.60
2019-05-01T00:33:37.148Z,64.07
2019-05-01T00:36:10.123Z,77.72
2019-05-01T00:38:43.799Z,67.15
2019-05-01T00:41:18.321Z,64.35
2019-05-01T00:43:51.784Z,70.30
2019-05-01T00:46:25.700Z,71.40
2019-05-01T00:48:59.642Z,71.47
2019-05-01T00:51:32.995Z,69.10
2019-05-01T00:54:06.131Z,69.60
2019-05-01T00:56:47.556Z,63.48
2019-05-01T00:59:51.890Z,70.40
2019-05-01T01:02:31.728Z,63.40
2019-05-01T01:05:05.041Z,68.07
2019-05-01T01:07:38.416Z,65.83
2019-05-01T01:10:13.426Z,59.67
2019-05-01T01:12:46.473Z,64.37
2019-05-01T01:15:20.798Z,65.80
2019-05-01T01:17:54.537Z,61.37
2019-05-01T01:20:26.725Z,64.82
2019-05-01T01:22:59.733Z,63.23
2019-05-01T01:25:33.452Z,68.47
2019-05-01T01:28:06.920Z,64.25
2019-05-01T01:30:39.510Z,65.25
2019-05-01T01:33:12.831Z,66.12
2019-05-01T01:35:46.633Z,64.77
2019-05-01T01:38:19.604Z,69.70
2019-05-01T01:40:52.699Z,64.47
2019-05-01T01:43:54.237Z,70.40
2019-05-01T01:46:29.331Z,65.08
2019-05-01T01:49:03.124Z,69.75
2019-05-01T01:51:36.360Z,62.80
2019-05-01T01:54:11.277Z,65.55
2019-05-01T01:56:43.981Z,65.78
2019-05-01T01:59:20.579Z,67.05
2019-05-01T02:02:09.281Z,68.00
2019-05-01T02:05:08.028Z,70.37
2019-05-01T02:07:40.880Z,69.55
2019-05-01T02:10:15.038Z,62.85
2019-05-01T02:12:48.593Z,70.47
2019-05-01T02:15:22.041Z,68.67
2019-05-01T02:17:55.419Z,72.22
2019-05-01T02:20:29.106Z,67.25
2019-05-01T02:23:02.709Z,63.98
2019-05-01T02:25:38.014Z,62.55
2019-05-01T02:28:27.317Z,63.33
2019-05-01T02:31:33.175Z,57.33
2019-05-01T02:34:07.387Z,56.65
2019-05-01T02:36:42.639Z,56.05
2019-05-01T02:39:18.302Z,59.15
2019-05-01T02:41:54.754Z,53.42
2019-05-01T02:44:34.171Z,54.77
2019-05-01T02:47:11.222Z,56.53
2019-05-01T02:49:58.736Z,56.02
2019-05-01T02:52:34.867Z,60.28
2019-05-01T02:55:19.112Z,60.12
2019-05-01T02:57:52.808Z,56.20
2019-05-01T03:00:26.567Z,50.08
2019-05-01T03:03:02.282Z,59.85
2019-05-01T03:05:35.697Z,54.75
2019-05-01T03:08:09.783Z,48.85
2019-05-01T03:10:43.152Z,60.28
2019-05-01T03:13:16.395Z,53.85
2019-05-01T03:15:49.784Z,54.88
2019-05-01T03:18:31.276Z,55.98
2019-05-01T03:21:22.045Z,54.55
2019-05-01T03:24:03.556Z,54.18
2019-05-01T03:30:52.042Z,51.75
2019-05-01T03:33:25.580Z,46.28
2019-05-01T03:35:59.140Z,49.70
2019-05-01T03:38:32.127Z,54.45
2019-05-01T03:41:05.371Z,52.48
2019-05-01T03:43:39.965Z,50.70
2019-05-01T03:46:12.724Z,49.25
2019-05-01T03:48:46.343Z,47.33
2019-05-01T03:51:20.108Z,54.77
2019-05-01T03:53:53.717Z,55.65
2019-05-01T03:56:27.773Z,55.80
2019-05-01T03:59:00.931Z,52.83
2019-05-01T04:01:56.241Z,58.80
2019-05-01T04:04:29.618Z,59.25
2019-05-01T04:07:03.051Z,52.80
2019-05-01T04:09:36.030Z,55.92
2019-05-01T04:12:08.697Z,54.98
2019-05-01T04:14:42.062Z,54.35
2019-05-01T04:17:23.576Z,61.58
2019-05-01T04:19:55.756Z,47.93
2019-05-01T04:22:28.729Z,59.13
2019-05-01T04:25:02.342Z,53.02
2019-05-01T04:27:37.620Z,53.38
2019-05-01T04:30:20.473Z,52.62
2019-05-01T04:32:56.132Z,55.20
2019-05-01T04:35:56.306Z,55.92
2019-05-01T04:38:30.574Z,55.90
2019-05-01T04:41:03.889Z,56.55
2019-05-01T04:43:37.400Z,61.08
2019-05-01T04:46:11.383Z,56.05
2019-05-01T04:48:44.900Z,54.65
2019-05-01T04:51:18.373Z,52.90
2019-05-01T04:53:51.661Z,51.45
2019-05-01T04:56:24.668Z,55.70
2019-05-01T04:58:58.221Z,48.63
2019-05-01T05:01:52.179Z,54.45
2019-05-01T05:04:26.229Z,50.88
2019-05-01T05:07:00.587Z,48.65
2019-05-01T05:09:41.275Z,51.88
2019-05-01T05:12:37.322Z,46.23
2019-05-01T05:15:35.796Z,46.73
2019-05-01T05:18:10.201Z,48.33
2019-05-01T05:20:43.471Z,51.53
2019-05-01T05:23:17.462Z,51.92
2019-05-01T05:25:51.439Z,49.85
2019-05-01T05:28:26.022Z,55.25
2019-05-01T05:31:00.029Z,48.15
2019-05-01T05:33:34.917Z,54.33
2019-05-01T05:36:10.537Z,47.58
2019-05-01T05:38:52.722Z,52.23
2019-05-01T05:41:27.110Z,50.23
2019-05-01T05:44:01.102Z,43.52
2019-05-01T05:46:35.340Z,46.88
2019-05-01T05:49:09.076Z,46.88
2019-05-01T05:51:50.476Z,44.30
2019-05-01T05:55:01.981Z,54.77
2019-05-01T05:57:55.363Z,41.65
2019-05-01T06:00:51.890Z,44.45
2019-05-01T06:03:48.638Z,48.40
2019-05-01T06:06:33.397Z,43.25
2019-05-01T06:09:09.120Z,43.70
2019-05-01T06:12:08.982Z,42.93
2019-05-01T06:14:56.263Z,41.45
2019-05-01T06:17:43.507Z,41.05
2019-05-01T06:20:37.703Z,39.70
2019-05-01T06:23:23.066Z,37.20
2019-05-01T06:26:20.317Z,40.60
2019-05-01T06:28:56.097Z,41.90
2019-05-01T06:31:29.848Z,43.70
2019-05-01T06:34:02.560Z,42.55
2019-05-01T06:36:36.585Z,39.75
2019-05-01T06:39:11.845Z,44.42
2019-05-01T06:41:45.414Z,41.00
2019-05-01T06:44:44.788Z,47.67
2019-05-01T06:47:23.860Z,35.73
2019-05-01T06:50:10.544Z,37.03
2019-05-01T06:52:44.465Z,42.73
2019-05-01T06:55:18.320Z,40.73
2019-05-01T06:57:54.161Z,37.17
2019-05-01T07:00:28.040Z,39.30
2019-05-01T07:03:06.045Z,38.98
2019-05-01T07:05:38.521Z,38.33
2019-05-01T07:08:24.029Z,37.90
2019-05-01T07:10:46.494Z,35.20
2019-05-01T07:13:19.247Z,40.65
2019-05-01T07:15:52.728Z,36.65
2019-05-01T07:18:29.098Z,36.73
2019-05-01T07:21:00.953Z,35.05
2019-05-01T07:23:34.493Z,33.08
2019-05-01T07:26:09.956Z,36.53
2019-05-01T07:28:44.843Z,33.20
2019-05-01T07:31:18.533Z,38.13
2019-05-01T07:33:52.489Z,34.25
2019-05-01T07:36:28.699Z,36.38
2019-05-01T07:39:02.596Z,31.77
2019-05-01T07:41:38.795Z,38.25
2019-05-01T07:44:35.134Z,30.77
2019-05-01T07:47:30.604Z,33.75
2019-05-01T07:50:06.346Z,35.60
2019-05-01T07:52:40.399Z,36.42
2019-05-01T07:55:18.134Z,33.85
2019-05-01T07:57:48.926Z,38.00
2019-05-01T08:00:36.970Z,32.23
2019-05-01T08:03:11.199Z,34.10
2019-05-01T08:05:45.472Z,33.70
2019-05-01T08:08:20.128Z,37.07
2019-05-01T08:10:53.182Z,35.27
2019-05-01T08:13:26.239Z,38.27
2019-05-01T08:16:01.993Z,42.03
2019-05-01T08:18:54.633Z,40.33
2019-05-01T08:21:47.594Z,35.63
2019-05-01T08:24:23.052Z,37.90
2019-05-01T08:26:56.535Z,39.50
2019-05-01T08:29:54.880Z,48.20
2019-05-01T08:32:45.420Z,42.10
2019-05-01T08:35:20.512Z,42.37
2019-05-01T08:37:58.477Z,40.90
2019-05-01T08:40:29.485Z,43.60
2019-05-01T08:43:02.217Z,45.67
2019-05-01T08:46:06.682Z,49.97
2019-05-01T08:48:48.563Z,43.60
2019-05-01T08:51:21.618Z,50.87
2019-05-01T08:53:57.764Z,45.90
2019-05-01T08:56:30.417Z,45.90
2019-05-01T08:59:04.999Z,46.83
2019-05-01T09:01:38.883Z,49.07
2019-05-01T09:04:13.018Z,47.47
2019-05-01T09:06:48.486Z,44.87
2019-05-01T09:09:39.735Z,54.30
2019-05-01T09:12:13.526Z,52.03
2019-05-01T09:14:51.223Z,51.47
2019-05-01T09:17:24.903Z,52.23
2019-05-01T09:19:57.891Z,56.13
2019-05-01T09:22:31.011Z,51.57
2019-05-01T09:25:08.014Z,46.07
2019-05-01T09:28:05.998Z,51.53
2019-05-01T09:30:43.992Z,55.20
2019-05-01T09:33:17.543Z,52.50
2019-05-01T09:35:50.226Z,48.50
2019-05-01T09:38:23.641Z,50.33
2019-05-01T09:40:57.508Z,46.47
2019-05-01T09:43:30.943Z,50.97
2019-05-01T09:46:06.102Z,45.77
2019-05-01T09:48:40.160Z,44.17
2019-05-01T09:51:29.564Z,45.10
2019-05-01T09:54:11.872Z,38.57
2019-05-01T09:56:45.803Z,46.10
2019-05-01T09:59:19.333Z,42.70
2019-05-01T10:01:52.843Z,42.10
2019-05-01T10:04:30.201Z,43.67
2019-05-01T10:07:02.304Z,44.50
2019-05-01T10:09:36.259Z,42.80
2019-05-01T10:12:11.457Z,40.33
2019-05-01T10:14:44.690Z,45.00
2019-05-01T10:17:18.175Z,42.70
2019-05-01T10:19:52.192Z,44.13
2019-05-01T10:22:25.687Z,41.10
2019-05-01T10:24:58.390Z,48.17
2019-05-01T10:27:35.695Z,40.73
2019-05-01T10:30:26.316Z,43.30
2019-05-01T10:33:04.697Z,44.43
2019-05-01T10:36:01.855Z,44.80
2019-05-01T10:38:35.422Z,40.17
2019-05-01T10:41:09.145Z,41.27
2019-05-01T10:43:44.013Z,42.23
2019-05-01T10:46:18.969Z,40.10
2019-05-01T10:48:52.705Z,39.90
2019-05-01T10:51:26.104Z,37.73
2019-05-01T10:53:59.480Z,41.73
2019-05-01T10:56:32.490Z,38.83
2019-05-01T10:59:05.590Z,37.97
2019-05-01T11:01:49.586Z,38.93
2019-05-01T11:04:24.109Z,34.07
2019-05-01T11:06:59.924Z,37.43
2019-05-01T11:09:33.300Z,38.60
2019-05-01T11:12:07.180Z,41.03
2019-05-01T11:14:44.193Z,35.67
2019-05-01T11:17:17.997Z,35.03
2019-05-01T11:19:51.713Z,38.17
2019-05-01T11:22:25.401Z,36.60
2019-05-01T11:24:59.220Z,41.20
2019-05-01T11:27:33.128Z,41.23
2019-05-01T11:30:07.823Z,37.00
2019-05-01T11:33:04.609Z,37.03
2019-05-01T11:36:09.782Z,36.30
2019-05-01T11:39:01.177Z,33.33
2019-05-01T11:41:55.674Z,35.83
2019-05-01T11:44:29.564Z,36.40
2019-05-01T11:47:02.765Z,36.97
2019-05-01T11:49:37.881Z,41.50
2019-05-01T11:52:11.710Z,38.40
2019-05-01T11:54:45.686Z,33.10
2019-05-01T11:57:19.936Z,38.77
2019-05-01T11:59:53.840Z,34.40
2019-05-01T12:02:27.353Z,35.70
2019-05-01T12:05:01.058Z,35.93
2019-05-01T12:07:34.952Z,36.47
2019-05-01T12:10:09.875Z,36.23
2019-05-01T12:12:43.498Z,36.67
2019-05-01T12:15:18.842Z,34.77
2019-05-01T12:17:51.483Z,36.97
2019-05-01T12:20:27.242Z,40.00
2019-05-01T12:23:00.273Z,34.20
2019-05-01T12:25:33.590Z,39.77
2019-05-01T12:28:06.692Z,36.70
2019-05-01T12:30:40.509Z,29.80
2019-05-01T12:33:13.529Z,33.40
2019-05-01T12:35:48.344Z,35.40
2019-05-01T12:38:21.455Z,34.67
2019-05-01T12:41:12.555Z,42.27
2019-05-01T12:43:45.746Z,34.73
2019-05-01T12:46:38.641Z,37.03
2019-05-01T12:49:11.923Z,43.13
2019-05-01T12:51:47.652Z,38.07
2019-05-01T12:54:44.389Z,35.67
2019-05-01T12:57:18.330Z,35.63
2019-05-01T12:59:51.666Z,36.07
2019-05-01T13:02:25.158Z,32.70
2019-05-01T13:04:58.682Z,35.13
2019-05-01T13:07:31.691Z,35.43
2019-05-01T13:10:05.025Z,34.00
2019-05-01T13:12:38.725Z,36.10
2019-05-01T13:15:13.838Z,39.13
2019-05-01T13:17:46.628Z,37.50
2019-05-01T13:20:19.793Z,39.80
2019-05-01T13:22:52.818Z,35.70
2019-05-01T13:25:27.428Z,36.03
2019-05-01T13:28:22.309Z,34.20
2019-05-01T13:31:14.864Z,35.70
2019-05-01T13:33:47.511Z,34.20
2019-05-01T13:36:21.405Z,35.47
2019-05-01T13:38:54.954Z,33.43
2019-05-01T13:41:30.566Z,33.17
2019-05-01T13:44:03.786Z,37.30
2019-05-01T13:46:36.515Z,36.70
2019-05-01T13:49:10.437Z,35.10
2019-05-01T13:51:44.373Z,32.03
2019-05-01T13:54:17.136Z,36.63
2019-05-01T13:56:50.497Z,37.17
2019-05-01T13:59:24.002Z,37.67
2019-05-01T14:01:58.091Z,33.13
2019-05-01T14:04:31.518Z,37.73
2019-05-01T14:07:15.777Z,37.33
2019-05-01T14:09:41.807Z,36.27
2019-05-01T14:12:15.212Z,39.50
2019-05-01T14:14:51.823Z,34.23
2019-05-01T14:17:25.284Z,32.13
2019-05-01T14:20:09.980Z,36.73
2019-05-01T14:22:50.559Z,33.20
2019-05-01T14:25:24.296Z,35.60
2019-05-01T14:27:58.155Z,33.00
2019-05-01T14:30:32.039Z,33.40
2019-05-01T14:33:05.009Z,33.83
2019-05-01T14:35:39.279Z,31.63
2019-05-01T14:38:12.313Z,32.33
2019-05-01T14:40:45.367Z,31.20
2019-05-01T14:43:20.751Z,34.47
2019-05-01T14:45:55.949Z,34.60
2019-05-01T14:48:31.690Z,37.80
2019-05-01T14:51:05.107Z,36.50
2019-05-01T14:53:38.847Z,40.40
2019-05-01T14:56:12.118Z,39.63
2019-05-01T14:58:47.826Z,32.30
2019-05-01T15:01:24.127Z,31.23
2019-05-01T15:03:58.347Z,32.57
2019-05-01T15:06:32.240Z,31.10
2019-05-01T15:09:09.829Z,36.07
2019-05-01T15:11:43.730Z,33.43
2019-05-01T15:14:23.595Z,36.37
2019-05-01T15:17:19.851Z,33.23
2019-05-01T15:20:03.327Z,32.20
2019-05-01T15:22:37.907Z,36.23
2019-05-01T15:25:10.835Z,34.37
